createdAt,value
2023-02-16T00:00:36.936Z,1.70
2023-02-16T00:01:36.939Z,1.90
2023-02-16T00:02:38.430Z,2.10
2023-02-16T00:03:37.150Z,1.70
2023-02-16T00:04:37.105Z,2.40
2023-02-16T00:06:54.366Z,2.70
2023-02-16T00:09:06.841Z,1.40
2023-02-16T00:10:04.484Z,2.00
2023-02-16T00:11:04.849Z,1.90
2023-02-16T00:12:04.501Z,1.30
2023-02-16T00:13:04.366Z,1.80
2023-02-16T00:14:04.403Z,1.40
2023-02-16T00:15:04.623Z,2.20
2023-02-16T00:16:04.440Z,2.00
2023-02-16T00:17:05.132Z,2.30
2023-02-16T00:18:04.328Z,1.70
2023-02-16T00:19:04.297Z,2.10
2023-02-16T00:20:04.417Z,1.80
2023-02-16T00:21:05.104Z,1.50
2023-02-16T00:22:05.041Z,1.90
2023-02-16T00:23:04.855Z,1.70
2023-02-16T00:24:04.294Z,1.70
2023-02-16T00:25:04.345Z,2.00
2023-02-16T00:26:04.336Z,1.70
2023-02-16T00:27:04.344Z,1.60
2023-02-16T00:28:04.366Z,2.00
2023-02-16T00:29:04.194Z,1.60
2023-02-16T00:30:04.399Z,1.80
2023-02-16T00:31:04.500Z,1.80
2023-02-16T00:32:11.543Z,2.00
2023-02-16T00:33:04.323Z,1.60
2023-02-16T00:34:04.242Z,1.60
2023-02-16T00:35:04.135Z,1.80
2023-02-16T00:36:04.168Z,2.50
2023-02-16T00:37:04.903Z,1.30
2023-02-16T00:38:04.070Z,1.20
2023-02-16T00:39:04.058Z,1.40
2023-02-16T00:40:04.181Z,1.40
2023-02-16T00:41:04.753Z,1.80
2023-02-16T00:42:04.297Z,1.60
2023-02-16T00:43:04.003Z,1.40
2023-02-16T00:44:03.992Z,1.70
2023-02-16T00:45:04.077Z,1.20
2023-02-16T00:46:04.234Z,2.00
2023-02-16T00:47:04.044Z,1.40
2023-02-16T00:48:04.034Z,1.70
2023-02-16T00:49:03.947Z,1.00
2023-02-16T00:50:03.928Z,1.50
2023-02-16T00:51:13.795Z,1.90
2023-02-16T00:52:05.094Z,2.00
2023-02-16T00:53:03.891Z,1.40
2023-02-16T00:54:03.813Z,1.00
2023-02-16T00:55:03.867Z,1.50
2023-02-16T00:56:03.793Z,1.70
2023-02-16T00:57:07.702Z,1.70
2023-02-16T00:58:04.394Z,1.50
2023-02-16T00:59:03.729Z,1.20
2023-02-16T01:00:03.817Z,1.40
2023-02-16T01:01:03.938Z,2.00
2023-02-16T01:02:03.782Z,1.70
2023-02-16T01:03:04.130Z,1.20
2023-02-16T01:04:04.149Z,1.40
2023-02-16T01:05:03.628Z,2.00
2023-02-16T01:06:03.823Z,1.70
2023-02-16T01:07:03.725Z,1.10
2023-02-16T01:08:04.398Z,1.50
2023-02-16T01:09:03.676Z,1.70
2023-02-16T01:10:03.884Z,1.70
2023-02-16T01:11:04.048Z,1.70
2023-02-16T01:12:03.700Z,1.50
2023-02-16T01:13:03.515Z,1.40
2023-02-16T01:14:03.522Z,1.50
2023-02-16T01:15:03.648Z,1.60
2023-02-16T01:16:03.992Z,1.40
2023-02-16T01:17:03.623Z,1.60
2023-02-16T01:18:04.224Z,1.30
2023-02-16T01:19:03.442Z,1.70
2023-02-16T01:20:04.235Z,1.20
2023-02-16T01:21:03.868Z,1.20
2023-02-16T01:22:03.525Z,1.40
2023-02-16T01:23:03.432Z,1.40
2023-02-16T01:24:03.411Z,1.20
2023-02-16T01:25:03.408Z,1.50
2023-02-16T01:26:04.410Z,1.30
2023-02-16T01:27:03.783Z,1.20
2023-02-16T01:28:03.492Z,1.50
2023-02-16T01:29:03.385Z,1.20
2023-02-16T01:30:03.356Z,1.30
2023-02-16T01:31:03.796Z,1.60
2023-02-16T01:32:03.394Z,1.40
2023-02-16T01:33:03.315Z,1.30
2023-02-16T01:34:03.964Z,1.40
2023-02-16T01:35:03.871Z,1.10
2023-02-16T01:36:03.235Z,1.30
2023-02-16T01:37:03.273Z,1.30
2023-02-16T01:38:03.354Z,1.20
2023-02-16T01:39:03.163Z,1.80
2023-02-16T01:40:03.548Z,1.40
2023-02-16T01:41:03.622Z,1.50
2023-02-16T01:42:03.895Z,1.10
2023-02-16T01:43:03.199Z,1.20
2023-02-16T01:44:03.273Z,1.30
2023-02-16T01:45:04.124Z,1.40
2023-02-16T01:46:03.816Z,1.50
2023-02-16T01:47:03.132Z,1.40
2023-02-16T01:48:03.289Z,1.10
2023-02-16T01:49:03.045Z,1.20
2023-02-16T01:50:03.854Z,1.10
2023-02-16T01:51:03.458Z,1.40
2023-02-16T01:52:03.759Z,1.10
2023-02-16T01:53:03.152Z,1.10
2023-02-16T01:54:02.976Z,1.50
2023-02-16T01:55:07.378Z,1.10
2023-02-16T01:56:03.478Z,0.80
2023-02-16T01:57:02.992Z,1.50
2023-02-16T01:58:03.751Z,1.10
2023-02-16T01:59:02.972Z,1.00
2023-02-16T02:00:03.406Z,1.00
2023-02-16T02:01:03.227Z,1.60
2023-02-16T02:02:03.835Z,1.20
2023-02-16T02:03:03.163Z,1.20
2023-02-16T02:04:03.658Z,1.10
2023-02-16T02:05:03.564Z,1.10
2023-02-16T02:06:02.839Z,1.30
2023-02-16T02:07:03.577Z,1.10
2023-02-16T02:08:03.495Z,1.10
2023-02-16T02:09:02.765Z,1.20
2023-02-16T02:10:03.066Z,1.30
2023-02-16T02:11:03.073Z,1.00
2023-02-16T02:12:02.802Z,1.20
2023-02-16T02:13:02.950Z,1.00
2023-02-16T02:14:02.889Z,1.30
2023-02-16T02:15:03.124Z,1.00
2023-02-16T02:16:03.146Z,1.10
2023-02-16T02:17:02.702Z,1.20
2023-02-16T02:18:02.815Z,1.20
2023-02-16T02:19:02.925Z,1.00
2023-02-16T02:20:04.188Z,1.10
2023-02-16T02:21:02.941Z,1.10
2023-02-16T02:22:02.943Z,1.10
2023-02-16T02:23:03.050Z,1.00
2023-02-16T02:24:02.750Z,1.20
2023-02-16T02:25:02.954Z,1.00
2023-02-16T02:26:02.688Z,1.40
2023-02-16T02:27:02.516Z,1.00
2023-02-16T02:28:02.737Z,1.10
2023-02-16T02:29:02.466Z,0.90
2023-02-16T02:30:02.517Z,1.00
2023-02-16T02:31:05.486Z,1.00
2023-02-16T02:32:03.166Z,0.90
2023-02-16T02:33:02.525Z,1.20
2023-02-16T02:34:03.586Z,0.90
2023-02-16T02:35:02.649Z,1.50
2023-02-16T02:36:03.526Z,1.20
2023-02-16T02:37:02.614Z,1.10
2023-02-16T02:38:02.987Z,1.20
2023-02-16T02:39:02.428Z,1.30
2023-02-16T02:40:02.551Z,0.90
2023-02-16T02:41:03.570Z,1.20
2023-02-16T02:42:02.714Z,1.20
2023-02-16T02:43:02.537Z,0.80
2023-02-16T02:44:02.557Z,1.00
2023-02-16T02:45:02.484Z,0.90
2023-02-16T02:46:03.049Z,1.10
2023-02-16T02:47:02.824Z,0.80
2023-02-16T02:48:02.468Z,0.90
2023-02-16T02:49:03.147Z,1.20
2023-02-16T02:50:02.315Z,1.20
2023-02-16T02:51:02.506Z,1.00
2023-02-16T02:52:02.689Z,1.00
2023-02-16T02:53:02.144Z,0.90
2023-02-16T02:54:02.221Z,1.00
2023-02-16T02:55:02.520Z,1.20
2023-02-16T02:56:02.689Z,1.00
2023-02-16T02:57:02.504Z,1.20
2023-02-16T02:58:02.496Z,1.10
2023-02-16T02:59:02.090Z,1.00
2023-02-16T03:00:02.166Z,1.20
2023-02-16T03:01:02.322Z,1.00
2023-02-16T03:02:02.102Z,0.90
2023-02-16T03:03:02.090Z,0.90
2023-02-16T03:04:02.621Z,1.00
2023-02-16T03:05:01.952Z,1.20
2023-02-16T03:06:02.823Z,1.10
2023-02-16T03:07:02.753Z,1.20
2023-02-16T03:08:02.048Z,1.10
2023-02-16T03:09:02.770Z,1.30
2023-02-16T03:10:02.079Z,1.10
2023-02-16T03:11:03.040Z,1.30
2023-02-16T03:12:01.942Z,1.20
2023-02-16T03:13:01.855Z,1.10
2023-02-16T03:14:02.062Z,1.10
2023-02-16T03:15:02.643Z,0.70
2023-02-16T03:16:02.532Z,1.10
2023-02-16T03:17:02.557Z,1.30
2023-02-16T03:18:01.771Z,1.40
2023-02-16T03:19:01.899Z,0.90
2023-02-16T03:20:01.845Z,1.00
2023-02-16T03:21:02.256Z,1.00
2023-02-16T03:22:02.225Z,0.90
2023-02-16T03:23:01.936Z,1.00
2023-02-16T03:24:01.714Z,0.80
2023-02-16T03:25:01.706Z,0.90
2023-02-16T03:26:01.934Z,0.80
2023-02-16T03:27:01.686Z,0.70
2023-02-16T03:28:01.690Z,1.30
2023-02-16T03:29:02.495Z,1.10
2023-02-16T03:30:02.012Z,0.80
2023-02-16T03:31:02.019Z,0.90
2023-02-16T03:32:01.959Z,0.80
2023-02-16T03:33:01.693Z,1.10
2023-02-16T03:34:01.677Z,1.10
2023-02-16T03:35:01.707Z,0.70
2023-02-16T03:36:01.600Z,1.10
2023-02-16T03:37:02.373Z,0.90
2023-02-16T03:38:01.846Z,1.00
2023-02-16T03:39:01.543Z,1.10
2023-02-16T03:40:01.562Z,1.20
2023-02-16T03:41:01.927Z,0.90
2023-02-16T03:42:02.461Z,1.30
2023-02-16T03:43:01.498Z,0.80
2023-02-16T03:44:01.556Z,0.90
2023-02-16T03:45:01.459Z,0.80
2023-02-16T03:46:01.654Z,0.90
2023-02-16T03:47:01.481Z,1.40
2023-02-16T03:48:01.375Z,1.10
2023-02-16T03:49:02.480Z,1.00
2023-02-16T03:50:02.187Z,0.90
2023-02-16T03:51:02.278Z,1.40
2023-02-16T03:52:01.419Z,1.10
2023-02-16T03:53:01.492Z,0.90
2023-02-16T03:54:01.307Z,0.80
2023-02-16T03:55:01.313Z,0.80
2023-02-16T03:56:01.321Z,0.80
2023-02-16T03:57:02.376Z,0.80
2023-02-16T03:58:01.266Z,0.70
2023-02-16T03:59:01.468Z,1.00
2023-02-16T04:00:01.256Z,0.80
2023-02-16T04:01:01.385Z,0.90
2023-02-16T04:02:01.346Z,0.80
2023-02-16T04:03:02.006Z,0.80
2023-02-16T04:04:01.127Z,0.90
2023-02-16T04:05:01.544Z,0.70
2023-02-16T04:06:01.126Z,0.90
2023-02-16T04:07:01.239Z,0.80
2023-02-16T04:08:01.442Z,1.00
2023-02-16T04:09:01.163Z,0.90
2023-02-16T04:10:01.066Z,0.70
2023-02-16T04:11:01.256Z,1.00
2023-02-16T04:12:01.145Z,0.90
2023-02-16T04:13:01.116Z,1.00
2023-02-16T04:14:01.354Z,0.90
2023-02-16T04:15:01.220Z,1.00
2023-02-16T04:16:01.981Z,1.00
2023-02-16T04:17:01.325Z,1.10
2023-02-16T04:18:00.962Z,1.00
2023-02-16T04:19:01.004Z,1.10
2023-02-16T04:20:02.031Z,1.00
2023-02-16T04:21:01.142Z,0.90
2023-02-16T04:22:00.906Z,0.80
2023-02-16T04:23:01.306Z,1.10
2023-02-16T04:24:00.851Z,1.00
2023-02-16T04:25:00.991Z,0.90
2023-02-16T04:26:01.108Z,0.70
2023-02-16T04:27:01.427Z,1.00
2023-02-16T04:28:00.830Z,0.60
2023-02-16T04:29:01.341Z,1.10
2023-02-16T04:30:00.867Z,0.70
2023-02-16T04:31:01.735Z,0.60
2023-02-16T04:32:01.057Z,0.80
2023-02-16T04:33:00.771Z,1.10
2023-02-16T04:34:00.691Z,0.90
2023-02-16T04:35:00.877Z,0.80
2023-02-16T04:36:00.974Z,1.00
2023-02-16T04:37:00.888Z,1.00
2023-02-16T04:38:00.860Z,0.80
2023-02-16T04:39:01.344Z,0.90
2023-02-16T04:40:00.681Z,1.00
2023-02-16T04:41:00.812Z,0.70
2023-02-16T04:42:00.642Z,1.10
2023-02-16T04:43:00.766Z,0.80
2023-02-16T04:44:00.652Z,1.10
2023-02-16T04:45:00.674Z,1.10
2023-02-16T04:46:00.780Z,0.70
2023-02-16T04:47:01.319Z,1.10
2023-02-16T04:48:01.619Z,1.00
2023-02-16T04:49:00.626Z,0.90
2023-02-16T04:50:00.625Z,0.90
2023-02-16T04:51:00.528Z,0.90
2023-02-16T04:52:00.457Z,0.60
2023-02-16T04:53:01.715Z,0.70
2023-02-16T04:54:00.555Z,0.80
2023-02-16T04:55:00.582Z,0.90
2023-02-16T04:56:01.404Z,0.80
2023-02-16T04:57:00.523Z,1.10
2023-02-16T04:58:04.081Z,0.30
2023-02-16T04:59:00.414Z,1.10
2023-02-16T05:00:00.392Z,0.70
2023-02-16T05:01:00.566Z,1.00
2023-02-16T05:02:00.734Z,1.00
2023-02-16T05:03:00.349Z,0.70
2023-02-16T05:04:00.483Z,0.70
2023-02-16T05:05:00.295Z,0.60
2023-02-16T05:06:00.314Z,1.10
2023-02-16T05:07:00.298Z,0.90
2023-02-16T05:08:00.884Z,0.50
2023-02-16T05:09:02.310Z,0.60
2023-02-16T05:10:01.278Z,1.20
2023-02-16T05:11:00.333Z,0.70
2023-02-16T05:12:00.185Z,0.80
2023-02-16T05:13:01.897Z,0.90
2023-02-16T05:14:00.208Z,0.80
2023-02-16T05:15:00.455Z,0.90
2023-02-16T05:16:00.182Z,0.90
2023-02-16T05:17:00.245Z,0.70
2023-02-16T05:18:01.125Z,0.50
2023-02-16T05:19:00.309Z,0.60
2023-02-16T05:20:00.209Z,0.80
2023-02-16T05:21:00.169Z,0.70
2023-02-16T05:22:00.104Z,0.80
2023-02-16T05:23:00.169Z,0.70
2023-02-16T05:24:00.383Z,0.50
2023-02-16T05:25:00.088Z,0.60
2023-02-16T05:26:00.466Z,0.90
2023-02-16T05:27:00.698Z,0.80
2023-02-16T05:28:00.031Z,0.80
2023-02-16T05:29:00.081Z,0.80
2023-02-16T05:30:00.067Z,0.80
2023-02-16T05:31:00.050Z,0.90
2023-02-16T05:32:03.334Z,1.00
2023-02-16T05:33:00.095Z,0.70
2023-02-16T05:33:59.876Z,0.70
2023-02-16T05:34:59.890Z,0.80
2023-02-16T05:36:00.664Z,0.70
2023-02-16T05:36:59.963Z,0.90
2023-02-16T05:38:00.040Z,0.50
2023-02-16T05:39:01.978Z,0.60
2023-02-16T05:39:59.802Z,0.70
2023-02-16T05:41:00.204Z,0.80
2023-02-16T05:41:59.803Z,0.70
2023-02-16T05:42:59.838Z,0.70
2023-02-16T05:44:01.127Z,0.90
2023-02-16T05:44:59.945Z,1.00
2023-02-16T05:46:00.741Z,0.60
2023-02-16T05:46:59.806Z,0.80
2023-02-16T05:48:00.450Z,1.00
2023-02-16T05:49:00.458Z,0.70
2023-02-16T05:49:59.937Z,0.80
2023-02-16T05:51:02.107Z,0.70
2023-02-16T05:51:59.633Z,0.90
2023-02-16T05:53:00.368Z,1.00
2023-02-16T05:54:00.383Z,0.60
2023-02-16T05:54:59.600Z,0.70
2023-02-16T05:56:05.868Z,0.90
2023-02-16T05:56:59.642Z,0.90
2023-02-16T05:57:59.609Z,0.60
2023-02-16T05:58:59.576Z,0.90
2023-02-16T05:59:59.538Z,0.80
2023-02-16T06:00:59.581Z,0.80
2023-02-16T06:01:59.784Z,1.00
2023-02-16T06:02:59.593Z,0.80
2023-02-16T06:04:00.469Z,0.70
2023-02-16T06:04:59.467Z,0.80
2023-02-16T06:05:59.682Z,0.70
2023-02-16T06:06:59.579Z,0.70
2023-02-16T06:07:59.755Z,0.60
2023-02-16T06:09:01.519Z,0.80
2023-02-16T06:09:59.373Z,0.70
2023-02-16T06:10:59.405Z,0.60
2023-02-16T06:11:59.341Z,0.70
2023-02-16T06:12:59.492Z,0.70
2023-02-16T06:14:00.531Z,1.00
2023-02-16T06:14:59.343Z,0.90
2023-02-16T06:16:00.341Z,1.00
2023-02-16T06:16:59.284Z,0.70
2023-02-16T06:17:59.389Z,0.80
2023-02-16T06:19:00.685Z,0.80
2023-02-16T06:19:59.398Z,0.60
2023-02-16T06:20:59.222Z,0.90
2023-02-16T06:21:59.975Z,1.20
2023-02-16T06:22:59.578Z,0.70
2023-02-16T06:23:59.530Z,0.50
2023-02-16T06:24:59.389Z,0.80
2023-02-16T06:25:59.937Z,0.80
2023-02-16T06:26:59.151Z,0.70
2023-02-16T06:27:59.856Z,0.70
2023-02-16T06:28:59.324Z,0.70
2023-02-16T06:29:59.221Z,0.90
2023-02-16T06:30:59.843Z,0.80
2023-02-16T06:31:59.611Z,0.80
2023-02-16T06:32:59.109Z,0.80
2023-02-16T06:33:59.128Z,0.80
2023-02-16T06:34:59.197Z,1.00
2023-02-16T06:35:59.114Z,0.90
2023-02-16T06:36:59.014Z,0.90
2023-02-16T06:37:59.550Z,0.70
2023-02-16T06:38:59.054Z,0.70
2023-02-16T06:39:58.963Z,0.70
2023-02-16T06:41:01.411Z,0.90
2023-02-16T06:41:59.515Z,1.00
2023-02-16T06:42:59.403Z,0.80
2023-02-16T06:43:59.394Z,0.70
2023-02-16T06:45:01.824Z,0.70
2023-02-16T06:45:59.389Z,0.60
2023-02-16T06:46:59.797Z,1.10
2023-02-16T06:47:58.838Z,0.60
2023-02-16T06:48:58.842Z,0.70
2023-02-16T06:49:59.030Z,0.90
2023-02-16T06:50:58.792Z,1.00
2023-02-16T06:51:58.909Z,0.90
2023-02-16T06:52:59.744Z,0.90
2023-02-16T06:53:58.827Z,1.50
2023-02-16T06:54:58.748Z,1.60
2023-02-16T06:55:58.849Z,1.80
2023-02-16T06:56:58.713Z,1.20
2023-02-16T06:57:58.780Z,1.80
2023-02-16T06:58:58.765Z,2.10
2023-02-16T06:59:58.651Z,2.00
2023-02-16T07:00:58.839Z,2.00
2023-02-16T07:01:59.370Z,1.90
2023-02-16T07:02:58.652Z,1.10
2023-02-16T07:03:59.413Z,1.50
2023-02-16T07:04:59.437Z,1.70
2023-02-16T07:06:00.269Z,1.20
2023-02-16T07:06:58.757Z,1.10
2023-02-16T07:07:58.706Z,1.30
2023-02-16T07:08:58.617Z,1.70
2023-02-16T07:09:58.815Z,1.50
2023-02-16T07:10:58.542Z,1.40
2023-02-16T07:11:58.492Z,1.80
2023-02-16T07:12:58.892Z,1.50
2023-02-16T07:13:58.804Z,2.20
2023-02-16T07:14:59.198Z,1.70
2023-02-16T07:15:59.465Z,2.10
2023-02-16T07:16:58.485Z,1.70
2023-02-16T07:17:58.433Z,1.80
2023-02-16T07:18:59.116Z,1.50
2023-02-16T07:20:00.014Z,2.30
2023-02-16T07:20:58.538Z,1.80
2023-02-16T07:21:58.440Z,2.00
2023-02-16T07:22:58.336Z,1.80
2023-02-16T07:23:58.283Z,2.00
2023-02-16T07:24:58.546Z,1.90
2023-02-16T07:25:58.452Z,1.80
2023-02-16T07:26:58.290Z,1.90
2023-02-16T07:27:58.274Z,1.70
2023-02-16T07:28:58.289Z,1.80
2023-02-16T07:29:58.388Z,1.50
2023-02-16T07:30:58.279Z,1.70
2023-02-16T07:31:58.399Z,1.80
2023-02-16T07:32:58.312Z,1.80
2023-02-16T07:33:58.218Z,1.70
2023-02-16T07:34:58.237Z,1.80
2023-02-16T07:35:58.218Z,1.50
2023-02-16T07:36:58.139Z,1.10
2023-02-16T07:37:58.666Z,1.30
2023-02-16T07:39:01.459Z,2.10
2023-02-16T07:39:58.112Z,1.20
2023-02-16T07:40:58.062Z,1.80
2023-02-16T07:41:58.291Z,0.90
2023-02-16T07:42:58.054Z,0.80
2023-02-16T07:43:58.095Z,1.30
2023-02-16T07:44:58.556Z,1.10
2023-02-16T07:45:59.083Z,1.40
2023-02-16T07:46:58.044Z,1.40
2023-02-16T07:47:58.068Z,1.30
2023-02-16T07:48:59.655Z,1.40
2023-02-16T07:49:58.016Z,1.00
2023-02-16T07:50:58.116Z,0.90
2023-02-16T07:51:58.126Z,1.10
2023-02-16T07:52:57.882Z,1.50
2023-02-16T07:53:58.675Z,1.60
2023-02-16T07:54:59.066Z,0.90
2023-02-16T07:55:58.785Z,1.00
2023-02-16T07:56:58.709Z,1.20
2023-02-16T07:57:58.584Z,1.40
2023-02-16T07:58:58.369Z,1.20
2023-02-16T07:59:57.890Z,1.00
2023-02-16T08:00:57.895Z,1.20
2023-02-16T08:01:58.899Z,1.70
2023-02-16T08:02:57.938Z,2.30
2023-02-16T08:03:59.526Z,1.70
2023-02-16T08:04:57.795Z,1.60
2023-02-16T08:05:58.486Z,1.30
2023-02-16T08:06:58.724Z,2.40
2023-02-16T08:07:59.219Z,1.90
2023-02-16T08:09:02.029Z,1.40
2023-02-16T08:09:57.727Z,1.80
2023-02-16T08:10:57.639Z,1.10
2023-02-16T08:11:57.722Z,5.40
2023-02-16T08:12:57.650Z,3.00
2023-02-16T08:13:57.936Z,2.50
2023-02-16T08:14:57.778Z,1.80
2023-02-16T08:15:57.699Z,1.50
2023-02-16T08:16:57.667Z,1.70
2023-02-16T08:17:57.591Z,0.90
2023-02-16T08:18:58.733Z,1.30
2023-02-16T08:19:57.800Z,1.00
2023-02-16T08:21:04.255Z,1.10
2023-02-16T08:21:58.635Z,1.30
2023-02-16T08:22:57.548Z,1.40
2023-02-16T08:23:57.529Z,1.10
2023-02-16T08:24:57.549Z,1.90
2023-02-16T08:25:57.635Z,1.30
2023-02-16T08:26:57.560Z,0.70
2023-02-16T08:28:00.139Z,1.10
2023-02-16T08:28:58.287Z,1.20
2023-02-16T08:29:58.079Z,1.40
2023-02-16T08:30:58.333Z,1.50
2023-02-16T08:31:58.627Z,1.60
2023-02-16T08:32:58.415Z,1.10
2023-02-16T08:33:58.421Z,0.70
2023-02-16T08:34:58.112Z,0.70
2023-02-16T08:35:58.025Z,1.40
2023-02-16T08:36:58.748Z,1.30
2023-02-16T08:37:58.873Z,1.00
2023-02-16T08:39:00.296Z,1.40
2023-02-16T08:39:57.254Z,1.30
2023-02-16T08:40:57.414Z,1.80
2023-02-16T08:41:57.351Z,1.10
2023-02-16T08:42:57.746Z,1.60
2023-02-16T08:43:57.283Z,1.50
2023-02-16T08:44:57.304Z,1.20
2023-02-16T08:45:57.397Z,1.70
2023-02-16T08:46:57.161Z,1.30
2023-02-16T08:47:57.298Z,1.00
2023-02-16T08:48:58.818Z,1.50
2023-02-16T08:49:57.801Z,1.20
2023-02-16T08:50:57.258Z,1.00
2023-02-16T08:51:57.258Z,1.40
2023-02-16T08:52:57.850Z,1.20
2023-02-16T08:53:57.172Z,1.30
2023-02-16T08:54:57.237Z,1.10
2023-02-16T08:55:57.304Z,1.30
2023-02-16T08:56:57.064Z,1.20
2023-02-16T08:57:57.035Z,1.10
2023-02-16T08:58:57.225Z,1.30
2023-02-16T08:59:57.088Z,1.10
2023-02-16T09:00:57.404Z,1.20
2023-02-16T09:01:57.164Z,1.40
2023-02-16T09:02:57.179Z,1.10
2023-02-16T09:04:00.101Z,0.80
2023-02-16T09:04:56.895Z,0.70
2023-02-16T09:05:57.260Z,1.10
2023-02-16T09:06:57.311Z,1.20
2023-02-16T09:07:57.100Z,0.80
2023-02-16T09:09:01.004Z,1.40
2023-02-16T09:09:57.878Z,1.40
2023-02-16T09:10:56.808Z,1.10
2023-02-16T09:11:56.813Z,1.80
2023-02-16T09:12:56.880Z,1.70
2023-02-16T09:13:57.520Z,0.70
2023-02-16T09:14:56.740Z,1.10
2023-02-16T09:15:57.172Z,0.80
2023-02-16T09:16:57.224Z,0.90
2023-02-16T09:17:56.788Z,1.00
2023-02-16T09:19:03.843Z,0.90
2023-02-16T09:19:56.898Z,1.00
2023-02-16T09:20:56.702Z,1.10
2023-02-16T09:21:56.837Z,1.20
2023-02-16T09:22:56.644Z,1.10
2023-02-16T09:23:56.777Z,1.20
2023-02-16T09:24:57.305Z,1.30
2023-02-16T09:25:56.725Z,0.90
2023-02-16T09:26:56.723Z,0.70
2023-02-16T09:27:57.172Z,1.20
2023-02-16T09:28:58.888Z,1.10
2023-02-16T09:29:56.625Z,1.20
2023-02-16T09:30:56.693Z,1.00
2023-02-16T09:31:57.985Z,1.10
2023-02-16T09:32:56.531Z,1.00
2023-02-16T09:34:03.335Z,1.30
2023-02-16T09:34:56.457Z,1.10
2023-02-16T09:35:56.592Z,0.60
2023-02-16T09:36:57.205Z,1.20
2023-02-16T09:37:56.949Z,1.30
2023-02-16T09:39:00.901Z,1.00
2023-02-16T09:39:56.409Z,1.00
2023-02-16T09:40:57.344Z,1.20
2023-02-16T09:41:57.067Z,1.50
2023-02-16T09:42:56.518Z,1.10
2023-02-16T09:43:57.593Z,1.20
2023-02-16T09:44:56.424Z,1.50
2023-02-16T09:45:56.496Z,0.70
2023-02-16T09:46:56.542Z,1.00
2023-02-16T09:47:56.322Z,1.20
2023-02-16T09:49:00.102Z,0.90
2023-02-16T09:49:56.526Z,1.10
2023-02-16T09:50:56.258Z,1.10
2023-02-16T09:51:57.124Z,1.00
2023-02-16T09:52:56.413Z,1.40
2023-02-16T09:53:56.326Z,1.20
2023-02-16T09:54:56.320Z,1.10
2023-02-16T09:55:56.335Z,1.00
2023-02-16T09:56:56.264Z,1.10
2023-02-16T09:57:56.243Z,0.80
2023-02-16T09:58:56.170Z,1.70
2023-02-16T09:59:57.399Z,1.00
2023-02-16T10:00:56.365Z,1.00
2023-02-16T10:01:57.251Z,1.20
2023-02-16T10:02:56.130Z,1.20
2023-02-16T10:03:59.575Z,1.40
2023-02-16T10:04:56.068Z,0.90
2023-02-16T10:05:56.670Z,1.20
2023-02-16T10:06:56.331Z,1.10
2023-02-16T10:07:56.238Z,1.20
2023-02-16T10:08:57.028Z,1.40
2023-02-16T10:09:56.005Z,1.30
2023-02-16T10:10:56.010Z,1.20
2023-02-16T10:11:57.546Z,0.80
2023-02-16T10:12:55.933Z,1.10
2023-02-16T10:13:56.313Z,1.30
2023-02-16T10:14:56.418Z,1.10
2023-02-16T10:15:56.179Z,1.50
2023-02-16T10:16:56.061Z,1.40
2023-02-16T10:17:56.399Z,1.10
2023-02-16T10:18:58.645Z,1.00
2023-02-16T10:19:56.820Z,1.10
2023-02-16T10:20:56.303Z,1.30
2023-02-16T10:21:56.105Z,1.10
2023-02-16T10:22:57.282Z,1.00
2023-02-16T10:23:56.146Z,1.60
2023-02-16T10:24:57.266Z,1.20
2023-02-16T10:25:56.555Z,0.90
2023-02-16T10:26:55.794Z,1.40
2023-02-16T10:27:55.865Z,1.30
2023-02-16T10:28:55.947Z,0.80
2023-02-16T10:29:55.938Z,0.90
2023-02-16T10:30:55.745Z,1.40
2023-02-16T10:31:55.885Z,0.90
2023-02-16T10:32:56.030Z,1.10
2023-02-16T10:33:57.725Z,1.50
2023-02-16T10:34:56.068Z,1.50
2023-02-16T10:35:56.036Z,0.80
2023-02-16T10:36:55.575Z,1.40
2023-02-16T10:38:06.915Z,0.70
2023-02-16T10:38:58.263Z,1.40
2023-02-16T10:39:57.408Z,0.90
2023-02-16T10:40:55.598Z,1.40
2023-02-16T10:41:55.608Z,1.20
2023-02-16T10:42:55.842Z,0.80
2023-02-16T10:43:55.887Z,1.80
2023-02-16T10:44:55.639Z,1.50
2023-02-16T10:45:55.848Z,1.20
2023-02-16T10:46:55.495Z,1.50
2023-02-16T10:47:55.477Z,0.50
2023-02-16T10:48:58.752Z,1.10
2023-02-16T10:49:55.671Z,0.80
2023-02-16T10:50:55.384Z,1.20
2023-02-16T10:51:55.628Z,1.20
2023-02-16T10:52:55.394Z,1.00
2023-02-16T10:53:55.530Z,1.00
2023-02-16T10:54:55.506Z,0.90
2023-02-16T10:55:55.526Z,0.70
2023-02-16T10:56:55.326Z,1.40
2023-02-16T10:57:55.451Z,1.20
2023-02-16T10:58:56.107Z,1.30
2023-02-16T10:59:55.457Z,1.50
2023-02-16T11:01:00.614Z,1.30
2023-02-16T11:01:55.330Z,2.30
2023-02-16T11:02:56.038Z,2.40
2023-02-16T11:04:01.458Z,2.20
2023-02-16T11:04:55.256Z,2.10
2023-02-16T11:05:55.465Z,2.30
2023-02-16T11:06:55.205Z,2.30
2023-02-16T11:07:55.267Z,2.60
2023-02-16T11:08:55.933Z,2.50
2023-02-16T11:09:55.360Z,2.40
2023-02-16T11:10:55.244Z,2.10
2023-02-16T11:11:55.910Z,2.30
2023-02-16T11:12:55.182Z,2.10
2023-02-16T11:13:55.535Z,2.20
2023-02-16T11:14:55.201Z,2.20
2023-02-16T11:15:55.273Z,211.00
2023-02-16T11:16:55.229Z,316.40
2023-02-16T11:17:55.156Z,270.00
2023-02-16T11:18:57.645Z,287.20
2023-02-16T11:19:55.169Z,322.70
2023-02-16T11:20:55.099Z,357.40
2023-02-16T11:21:55.196Z,303.90
2023-02-16T11:22:55.761Z,105.10
2023-02-16T11:23:55.031Z,282.70
2023-02-16T11:24:55.015Z,103.00
2023-02-16T11:25:55.083Z,317.60
2023-02-16T11:26:54.999Z,441.70
2023-02-16T11:27:55.627Z,245.20
2023-02-16T11:28:56.211Z,316.30
2023-02-16T11:29:55.025Z,204.40
2023-02-16T11:30:55.060Z,92.50
2023-02-16T11:31:55.286Z,64.30
2023-02-16T11:32:55.157Z,60.10
2023-02-16T11:33:58.761Z,35.10
2023-02-16T11:34:54.991Z,12.80
2023-02-16T11:35:54.783Z,8.00
2023-02-16T11:36:55.571Z,101.70
2023-02-16T11:37:55.073Z,292.10
2023-02-16T11:38:57.902Z,26.10
2023-02-16T11:39:55.006Z,190.10
2023-02-16T11:40:55.195Z,262.40
2023-02-16T11:41:54.807Z,281.10
2023-02-16T11:42:55.209Z,129.00
2023-02-16T11:43:55.013Z,77.70
2023-02-16T11:44:54.885Z,49.40
2023-02-16T11:45:55.402Z,39.20
2023-02-16T11:46:55.438Z,18.80
2023-02-16T11:47:54.797Z,86.50
2023-02-16T11:48:57.516Z,50.20
2023-02-16T11:49:54.676Z,310.50
2023-02-16T11:50:54.714Z,63.60
2023-02-16T11:51:54.581Z,82.70
2023-02-16T11:52:54.804Z,40.40
2023-02-16T11:53:54.551Z,20.40
2023-02-16T11:54:54.562Z,7.20
2023-02-16T11:55:54.721Z,4.70
2023-02-16T11:56:54.790Z,2.50
2023-02-16T11:57:55.328Z,3.00
2023-02-16T11:58:54.688Z,2.20
2023-02-16T11:59:55.478Z,1.80
2023-02-16T12:00:54.479Z,3.80
2023-02-16T12:01:54.897Z,64.80
2023-02-16T12:02:54.671Z,58.60
2023-02-16T12:04:01.366Z,71.60
2023-02-16T12:04:55.603Z,47.20
2023-02-16T12:05:54.464Z,161.20
2023-02-16T12:06:55.100Z,25.50
2023-02-16T12:07:54.453Z,16.30
2023-02-16T12:08:58.002Z,5.30
2023-02-16T12:09:55.241Z,3.00
2023-02-16T12:10:54.698Z,2.30
2023-02-16T12:11:54.507Z,1.80
2023-02-16T12:12:54.389Z,1.90
2023-02-16T12:13:54.431Z,2.00
2023-02-16T12:14:54.287Z,1.30
2023-02-16T12:15:54.403Z,1.60
2023-02-16T12:16:55.180Z,1.50
2023-02-16T12:17:54.211Z,1.10
2023-02-16T12:19:00.898Z,62.10
2023-02-16T12:19:54.288Z,163.50
2023-02-16T12:20:54.245Z,40.60
2023-02-16T12:21:54.579Z,9.00
2023-02-16T12:22:54.298Z,5.10
2023-02-16T12:23:55.168Z,2.70
2023-02-16T12:24:54.177Z,2.10
2023-02-16T12:25:55.295Z,1.60
2023-02-16T12:26:54.185Z,130.10
2023-02-16T12:27:54.444Z,11.70
2023-02-16T12:28:54.074Z,6.40
2023-02-16T12:29:54.209Z,2.70
2023-02-16T12:30:54.259Z,1.70
2023-02-16T12:31:54.504Z,1.80
2023-02-16T12:32:53.973Z,1.90
2023-02-16T12:33:55.377Z,1.80
2023-02-16T12:34:54.078Z,1.60
2023-02-16T12:35:53.954Z,1.70
2023-02-16T12:36:54.002Z,1.40
2023-02-16T12:37:54.050Z,1.50
2023-02-16T12:38:56.905Z,1.20
2023-02-16T12:40:15.102Z,1.10
2023-02-16T12:40:54.188Z,1.50
2023-02-16T12:41:53.902Z,1.90
2023-02-16T12:42:54.029Z,1.60
2023-02-16T12:43:54.183Z,1.50
2023-02-16T12:44:54.080Z,1.50
2023-02-16T12:45:54.973Z,1.50
2023-02-16T12:46:53.809Z,1.40
2023-02-16T12:47:53.859Z,1.50
2023-02-16T12:48:55.742Z,1.50
2023-02-16T12:49:53.813Z,1.20
2023-02-16T12:50:53.878Z,1.30
2023-02-16T12:51:53.845Z,1.20
2023-02-16T12:52:53.747Z,1.10
2023-02-16T12:53:53.712Z,1.40
2023-02-16T12:55:00.396Z,1.50
2023-02-16T12:55:53.865Z,1.40
2023-02-16T12:56:53.860Z,1.30
2023-02-16T12:57:54.601Z,1.10
2023-02-16T12:58:53.773Z,1.40
2023-02-16T12:59:53.593Z,1.40
2023-02-16T13:00:54.405Z,1.30
2023-02-16T13:01:53.637Z,1.00
2023-02-16T13:02:53.712Z,1.20
2023-02-16T13:04:00.450Z,1.30
2023-02-16T13:04:53.774Z,1.30
2023-02-16T13:05:53.606Z,1.40
2023-02-16T13:06:55.806Z,1.20
2023-02-16T13:07:53.777Z,1.30
2023-02-16T13:08:53.578Z,1.40
2023-02-16T13:09:53.505Z,1.10
2023-02-16T13:10:53.514Z,1.20
2023-02-16T13:11:53.537Z,1.40
2023-02-16T13:12:53.459Z,1.30
2023-02-16T13:13:53.492Z,1.60
2023-02-16T13:14:54.126Z,1.20
2023-02-16T13:15:53.722Z,1.10
2023-02-16T13:16:53.620Z,1.30
2023-02-16T13:17:53.382Z,1.30